< < Back
Terminal Aerodrome Forecast


Current Version              Previous Versions:   1  2  3  4  5  6  7  8  9  

Terminal Aerodrome Forecast

355
FTUS42 KFFC 210500
TAFMCN
TAF
KMCN 210520Z 2106/2206 VRB03KT P6SM SCT250
     FM211400 27006KT P6SM SKC
     FM211900 29010KT P6SM SCT050
     FM220000 27003KT P6SM BKN080=



Latest METAR

197
SAUS80 KWBC 210700 RRA
MTRMCN
METAR KMCN 210653Z AUTO 27004KT 7SM CLR 16/16 A3000 RMK AO2 SLP153
T01560156 TSNO $


USA.gov is the U.S. government's official web portal to all federal, state and local government web resources and services.